Impacts METAR Board
IDs:

KAUS - Austin/Bergstrom Int, TX, US

Updated at: 0300 UTC 18 Jan 2022
Potential Impact None Slight Moderate High
Time 17/15Z 17/16Z 17/17Z 17/18Z 17/19Z 17/20Z 17/21Z 17/22Z 17/23Z 18/00Z 18/01Z 18/02Z 18/03Z
Temp41 45 51 56 60 64 66 69 67 62 50 42 37
Dewpt31 28 26 28 26 25 25 21 21 23 25 27 27
Altim30.17 30.19 30.19 30.18 30.13 30.10 30.08 30.06 30.05 30.05 30.06 30.06 30.07
VIS10 10 10 10 10 10 10 10 10 10 10 10 10
CIG-- -- -- -- -- -- -- -- -- -- -- -- --
CoverCLRCLRFEWFEWCLRCLRCLRCLRCLRFEWFEWSCTSCT
FltCatVFRVFRVFRVFRVFRVFRVFRVFRVFRVFRVFRVFRVFR
WX--------------------------
WDir200500013002201701501701900
WSpd4 0 6 4 3 3 0 4 11 7 3 3 0
WGst-- -- -- -- -- -- -- -- -- -- -- -- --
Raw hourly METARs
KAUS 171453Z 02004KT 10SM CLR 05/M01 A3017 RMK AO2 SLP225 T00501006 51017
KAUS 171553Z 00000KT 10SM CLR 07/M02 A3019 RMK AO2 SLP231 T00721022
KAUS 171653Z 05006KT 10SM FEW300 11/M03 A3019 RMK AO2 SLP229 T01061033
KAUS 171753Z VRB04KT 10SM FEW300 13/M02 A3018 RMK AO2 SLP221 T01331022 10133 21044 50000
KAUS 171853Z VRB03KT 10SM CLR 16/M03 A3013 RMK AO2 SLP206 T01561033
KAUS 171953Z 13003KT 10SM CLR 18/M04 A3010 RMK AO2 SLP194 T01781039
KAUS 172053Z 00000KT 10SM CLR 19/M04 A3008 RMK AO2 SLP186 T01891039 56033
KAUS 172153Z 22004KT 10SM CLR 21/M06 A3006 RMK AO2 SLP180 T02061061
KAUS 172253Z 17011KT 10SM CLR 19/M06 A3005 RMK AO2 SLP177 T01941061
KAUS 172353Z 15007KT 10SM FEW250 17/M05 A3005 RMK AO2 SLP176 T01671050 10211 20133 56011
KAUS 180053Z 17003KT 10SM FEW200 10/M04 A3006 RMK AO2 SLP183 T01001039
KAUS 180153Z 19003KT 10SM FEW200 SCT250 06/M03 A3006 RMK AO2 SLP186 T00561028
KAUS 180253Z 00000KT 10SM SCT250 03/M03 A3007 RMK AO2 SLP190 T00281028 53010